sensor_id;sensor_type;location;lat;lon;timestamp;P1;durP1;ratioP1;P2;durP2;ratioP2
18732;SDS011;9495;51.210;2.934;2022-10-31T00:00:47;11.37;;;8.73;;
18732;SDS011;9495;51.210;2.934;2022-10-31T00:03:16;12.87;;;9.00;;
18732;SDS011;9495;51.210;2.934;2022-10-31T00:05:45;10.80;;;8.93;;
18732;SDS011;9495;51.210;2.934;2022-10-31T00:08:15;13.20;;;9.33;;
18732;SDS011;9495;51.210;2.934;2022-10-31T00:10:44;13.43;;;9.33;;
18732;SDS011;9495;51.210;2.934;2022-10-31T00:13:13;10.07;;;8.50;;
18732;SDS011;9495;51.210;2.934;2022-10-31T00:15:43;12.40;;;9.27;;
18732;SDS011;9495;51.210;2.934;2022-10-31T00:18:11;14.30;;;9.97;;
18732;SDS011;9495;51.210;2.934;2022-10-31T00:20:39;14.80;;;10.27;;
18732;SDS011;9495;51.210;2.934;2022-10-31T00:23:08;14.73;;;9.97;;
18732;SDS011;9495;51.210;2.934;2022-10-31T00:25:38;13.83;;;9.27;;
18732;SDS011;9495;51.210;2.934;2022-10-31T00:28:07;14.17;;;9.63;;
18732;SDS011;9495;51.210;2.934;2022-10-31T00:30:38;10.67;;;9.53;;
18732;SDS011;9495;51.210;2.934;2022-10-31T00:33:08;15.80;;;9.60;;
18732;SDS011;9495;51.210;2.934;2022-10-31T00:35:36;14.23;;;10.00;;
18732;SDS011;9495;51.210;2.934;2022-10-31T00:38:04;14.03;;;9.73;;
18732;SDS011;9495;51.210;2.934;2022-10-31T00:40:32;14.03;;;9.67;;
18732;SDS011;9495;51.210;2.934;2022-10-31T00:43:01;13.60;;;9.70;;
18732;SDS011;9495;51.210;2.934;2022-10-31T00:45:30;15.80;;;9.97;;
18732;SDS011;9495;51.210;2.934;2022-10-31T00:47:58;12.13;;;9.93;;
18732;SDS011;9495;51.210;2.934;2022-10-31T00:50:28;13.53;;;10.20;;
18732;SDS011;9495;51.210;2.934;2022-10-31T00:52:57;14.10;;;10.17;;
18732;SDS011;9495;51.210;2.934;2022-10-31T00:55:25;13.30;;;10.17;;
18732;SDS011;9495;51.210;2.934;2022-10-31T00:57:53;13.53;;;10.80;;
18732;SDS011;9495;51.210;2.934;2022-10-31T01:00:22;14.73;;;10.30;;
18732;SDS011;9495;51.210;2.934;2022-10-31T01:02:50;16.53;;;10.43;;
18732;SDS011;9495;51.210;2.934;2022-10-31T01:05:19;14.23;;;11.00;;
18732;SDS011;9495;51.210;2.934;2022-10-31T01:07:48;17.63;;;11.07;;
18732;SDS011;9495;51.210;2.934;2022-10-31T01:10:16;16.00;;;11.17;;
18732;SDS011;9495;51.210;2.934;2022-10-31T01:12:46;17.53;;;11.40;;
18732;SDS011;9495;51.210;2.934;2022-10-31T01:15:16;16.40;;;11.50;;
18732;SDS011;9495;51.210;2.934;2022-10-31T01:17:46;17.17;;;11.23;;
18732;SDS011;9495;51.210;2.934;2022-10-31T01:20:15;15.97;;;11.93;;
18732;SDS011;9495;51.210;2.934;2022-10-31T01:22:44;16.30;;;12.40;;
18732;SDS011;9495;51.210;2.934;2022-10-31T01:25:14;18.87;;;13.23;;
18732;SDS011;9495;51.210;2.934;2022-10-31T01:27:42;16.03;;;12.50;;
18732;SDS011;9495;51.210;2.934;2022-10-31T01:30:11;17.83;;;12.13;;
18732;SDS011;9495;51.210;2.934;2022-10-31T01:32:40;16.60;;;12.30;;
18732;SDS011;9495;51.210;2.934;2022-10-31T01:35:08;20.03;;;12.90;;
18732;SDS011;9495;51.210;2.934;2022-10-31T01:37:36;17.87;;;12.67;;
18732;SDS011;9495;51.210;2.934;2022-10-31T01:40:05;18.70;;;13.57;;
18732;SDS011;9495;51.210;2.934;2022-10-31T01:42:35;18.03;;;13.23;;
18732;SDS011;9495;51.210;2.934;2022-10-31T01:45:04;18.07;;;13.37;;
18732;SDS011;9495;51.210;2.934;2022-10-31T01:47:35;16.37;;;13.63;;
18732;SDS011;9495;51.210;2.934;2022-10-31T01:50:12;21.90;;;14.53;;
18732;SDS011;9495;51.210;2.934;2022-10-31T01:52:53;21.07;;;14.77;;
18732;SDS011;9495;51.210;2.934;2022-10-31T01:55:23;21.60;;;14.40;;
18732;SDS011;9495;51.210;2.934;2022-10-31T01:57:57;20.50;;;14.67;;
18732;SDS011;9495;51.210;2.934;2022-10-31T02:00:31;22.40;;;14.23;;
18732;SDS011;9495;51.210;2.934;2022-10-31T02:02:59;20.47;;;14.47;;
18732;SDS011;9495;51.210;2.934;2022-10-31T02:05:29;22.07;;;13.87;;
18732;SDS011;9495;51.210;2.934;2022-10-31T02:08:01;18.40;;;13.33;;
18732;SDS011;9495;51.210;2.934;2022-10-31T02:10:32;20.23;;;14.27;;
18732;SDS011;9495;51.210;2.934;2022-10-31T02:13:04;20.93;;;14.90;;
18732;SDS011;9495;51.210;2.934;2022-10-31T02:15:33;18.30;;;14.40;;
18732;SDS011;9495;51.210;2.934;2022-10-31T02:18:04;20.07;;;14.43;;
18732;SDS011;9495;51.210;2.934;2022-10-31T02:20:36;22.17;;;13.70;;
18732;SDS011;9495;51.210;2.934;2022-10-31T02:32:26;22.97;;;13.80;;
18732;SDS011;9495;51.210;2.934;2022-10-31T02:34:58;18.17;;;13.57;;
18732;SDS011;9495;51.210;2.934;2022-10-31T02:37:34;19.03;;;13.63;;
18732;SDS011;9495;51.210;2.934;2022-10-31T02:40:12;17.47;;;13.37;;
18732;SDS011;9495;51.210;2.934;2022-10-31T02:42:46;19.67;;;13.30;;
18732;SDS011;9495;51.210;2.934;2022-10-31T02:45:20;22.27;;;13.17;;
18732;SDS011;9495;51.210;2.934;2022-10-31T02:47:55;19.50;;;13.13;;
18732;SDS011;9495;51.210;2.934;2022-10-31T02:50:28;21.93;;;13.20;;
18732;SDS011;9495;51.210;2.934;2022-10-31T02:53:00;23.33;;;13.17;;
18732;SDS011;9495;51.210;2.934;2022-10-31T02:55:42;21.57;;;14.37;;
18732;SDS011;9495;51.210;2.934;2022-10-31T02:58:17;20.17;;;13.67;;
18732;SDS011;9495;51.210;2.934;2022-10-31T03:00:53;25.63;;;14.17;;
18732;SDS011;9495;51.210;2.934;2022-10-31T03:03:38;22.33;;;14.13;;
18732;SDS011;9495;51.210;2.934;2022-10-31T03:06:17;23.20;;;14.40;;
18732;SDS011;9495;51.210;2.934;2022-10-31T03:08:54;21.27;;;14.87;;
18732;SDS011;9495;51.210;2.934;2022-10-31T03:11:28;22.70;;;14.43;;
18732;SDS011;9495;51.210;2.934;2022-10-31T03:14:05;26.30;;;14.13;;
18732;SDS011;9495;51.210;2.934;2022-10-31T03:16:39;20.93;;;14.60;;
18732;SDS011;9495;51.210;2.934;2022-10-31T03:19:14;24.67;;;14.20;;
18732;SDS011;9495;51.210;2.934;2022-10-31T03:21:46;24.43;;;14.73;;
18732;SDS011;9495;51.210;2.934;2022-10-31T03:24:16;21.20;;;13.50;;
18732;SDS011;9495;51.210;2.934;2022-10-31T03:26:48;24.07;;;14.37;;
18732;SDS011;9495;51.210;2.934;2022-10-31T03:29:19;22.50;;;14.37;;
18732;SDS011;9495;51.210;2.934;2022-10-31T03:31:51;25.73;;;15.03;;
18732;SDS011;9495;51.210;2.934;2022-10-31T03:34:24;23.67;;;16.40;;
18732;SDS011;9495;51.210;2.934;2022-10-31T03:36:54;23.63;;;15.67;;
18732;SDS011;9495;51.210;2.934;2022-10-31T03:39:26;23.03;;;16.07;;
18732;SDS011;9495;51.210;2.934;2022-10-31T03:41:57;24.03;;;15.73;;
18732;SDS011;9495;51.210;2.934;2022-10-31T03:44:32;24.13;;;16.43;;
18732;SDS011;9495;51.210;2.934;2022-10-31T03:47:02;26.20;;;16.37;;
18732;SDS011;9495;51.210;2.934;2022-10-31T03:49:32;25.07;;;16.53;;
18732;SDS011;9495;51.210;2.934;2022-10-31T03:52:02;29.70;;;16.27;;
18732;SDS011;9495;51.210;2.934;2022-10-31T03:54:38;23.70;;;15.87;;
18732;SDS011;9495;51.210;2.934;2022-10-31T03:57:12;23.60;;;16.60;;
18732;SDS011;9495;51.210;2.934;2022-10-31T03:59:47;25.97;;;16.77;;
18732;SDS011;9495;51.210;2.934;2022-10-31T04:02:20;22.73;;;16.40;;
18732;SDS011;9495;51.210;2.934;2022-10-31T04:04:50;23.93;;;16.40;;
18732;SDS011;9495;51.210;2.934;2022-10-31T04:07:19;27.73;;;17.83;;
18732;SDS011;9495;51.210;2.934;2022-10-31T04:09:51;29.07;;;18.20;;
18732;SDS011;9495;51.210;2.934;2022-10-31T04:12:22;29.47;;;18.00;;
18732;SDS011;9495;51.210;2.934;2022-10-31T04:14:53;30.23;;;17.67;;
18732;SDS011;9495;51.210;2.934;2022-10-31T04:17:23;33.43;;;20.17;;
18732;SDS011;9495;51.210;2.934;2022-10-31T04:19:58;35.03;;;19.30;;
18732;SDS011;9495;51.210;2.934;2022-10-31T04:22:26;32.10;;;19.70;;
18732;SDS011;9495;51.210;2.934;2022-10-31T04:24:55;33.27;;;19.50;;
18732;SDS011;9495;51.210;2.934;2022-10-31T04:27:23;36.10;;;20.13;;
18732;SDS011;9495;51.210;2.934;2022-10-31T04:29:51;32.70;;;19.73;;
18732;SDS011;9495;51.210;2.934;2022-10-31T04:32:19;37.07;;;21.17;;
18732;SDS011;9495;51.210;2.934;2022-10-31T04:34:48;32.70;;;21.33;;
18732;SDS011;9495;51.210;2.934;2022-10-31T04:37:17;35.17;;;22.17;;
18732;SDS011;9495;51.210;2.934;2022-10-31T04:39:46;32.97;;;21.23;;
18732;SDS011;9495;51.210;2.934;2022-10-31T04:42:14;42.20;;;23.80;;
18732;SDS011;9495;51.210;2.934;2022-10-31T04:44:42;33.40;;;21.70;;
18732;SDS011;9495;51.210;2.934;2022-10-31T04:47:14;35.20;;;21.63;;
18732;SDS011;9495;51.210;2.934;2022-10-31T04:49:42;38.03;;;22.03;;
18732;SDS011;9495;51.210;2.934;2022-10-31T04:52:12;35.10;;;21.67;;
18732;SDS011;9495;51.210;2.934;2022-10-31T04:54:42;35.43;;;20.03;;
18732;SDS011;9495;51.210;2.934;2022-10-31T04:57:10;36.97;;;20.83;;
18732;SDS011;9495;51.210;2.934;2022-10-31T04:59:39;34.97;;;20.50;;
18732;SDS011;9495;51.210;2.934;2022-10-31T05:02:10;37.47;;;21.53;;
18732;SDS011;9495;51.210;2.934;2022-10-31T05:04:39;37.53;;;22.07;;
18732;SDS011;9495;51.210;2.934;2022-10-31T05:07:09;37.53;;;22.07;;
18732;SDS011;9495;51.210;2.934;2022-10-31T05:09:38;36.30;;;22.63;;
18732;SDS011;9495;51.210;2.934;2022-10-31T05:12:07;42.97;;;23.20;;
18732;SDS011;9495;51.210;2.934;2022-10-31T05:14:35;39.13;;;22.43;;
18732;SDS011;9495;51.210;2.934;2022-10-31T05:17:03;43.83;;;23.90;;
18732;SDS011;9495;51.210;2.934;2022-10-31T05:19:32;41.03;;;23.03;;
18732;SDS011;9495;51.210;2.934;2022-10-31T05:22:00;38.00;;;22.90;;
18732;SDS011;9495;51.210;2.934;2022-10-31T05:24:28;41.57;;;23.90;;
18732;SDS011;9495;51.210;2.934;2022-10-31T05:26:57;39.40;;;24.73;;
18732;SDS011;9495;51.210;2.934;2022-10-31T05:29:26;42.97;;;25.23;;
18732;SDS011;9495;51.210;2.934;2022-10-31T05:31:59;38.80;;;25.07;;
18732;SDS011;9495;51.210;2.934;2022-10-31T05:34:28;43.33;;;24.87;;
18732;SDS011;9495;51.210;2.934;2022-10-31T05:36:56;42.20;;;24.73;;
18732;SDS011;9495;51.210;2.934;2022-10-31T05:39:24;52.87;;;26.20;;
18732;SDS011;9495;51.210;2.934;2022-10-31T05:41:52;44.03;;;24.40;;
18732;SDS011;9495;51.210;2.934;2022-10-31T05:44:20;41.47;;;24.80;;
18732;SDS011;9495;51.210;2.934;2022-10-31T05:46:50;41.93;;;24.67;;
18732;SDS011;9495;51.210;2.934;2022-10-31T05:49:18;46.93;;;26.40;;
18732;SDS011;9495;51.210;2.934;2022-10-31T05:51:47;42.97;;;24.97;;
18732;SDS011;9495;51.210;2.934;2022-10-31T05:54:15;42.57;;;25.53;;
18732;SDS011;9495;51.210;2.934;2022-10-31T05:56:43;45.07;;;25.17;;
18732;SDS011;9495;51.210;2.934;2022-10-31T05:59:12;44.23;;;24.47;;
18732;SDS011;9495;51.210;2.934;2022-10-31T06:01:40;44.10;;;25.23;;
18732;SDS011;9495;51.210;2.934;2022-10-31T06:04:10;46.00;;;26.37;;
18732;SDS011;9495;51.210;2.934;2022-10-31T06:06:41;47.37;;;26.50;;
18732;SDS011;9495;51.210;2.934;2022-10-31T06:09:09;43.00;;;26.63;;
18732;SDS011;9495;51.210;2.934;2022-10-31T06:11:37;47.27;;;26.53;;
18732;SDS011;9495;51.210;2.934;2022-10-31T06:14:06;44.03;;;26.03;;
18732;SDS011;9495;51.210;2.934;2022-10-31T06:16:34;49.73;;;27.10;;
18732;SDS011;9495;51.210;2.934;2022-10-31T06:19:02;45.47;;;27.57;;
18732;SDS011;9495;51.210;2.934;2022-10-31T06:21:32;52.40;;;27.43;;
18732;SDS011;9495;51.210;2.934;2022-10-31T06:24:00;51.30;;;28.90;;
18732;SDS011;9495;51.210;2.934;2022-10-31T06:26:29;46.20;;;28.33;;
18732;SDS011;9495;51.210;2.934;2022-10-31T06:28:57;48.13;;;28.60;;
18732;SDS011;9495;51.210;2.934;2022-10-31T06:31:29;48.37;;;29.57;;
18732;SDS011;9495;51.210;2.934;2022-10-31T06:33:57;50.03;;;28.73;;
18732;SDS011;9495;51.210;2.934;2022-10-31T06:36:26;51.30;;;29.23;;
18732;SDS011;9495;51.210;2.934;2022-10-31T06:38:56;46.27;;;28.30;;
18732;SDS011;9495;51.210;2.934;2022-10-31T06:41:24;50.93;;;29.30;;
18732;SDS011;9495;51.210;2.934;2022-10-31T06:43:52;51.00;;;29.03;;
18732;SDS011;9495;51.210;2.934;2022-10-31T06:46:21;44.07;;;28.73;;
18732;SDS011;9495;51.210;2.934;2022-10-31T06:48:49;58.43;;;29.80;;
18732;SDS011;9495;51.210;2.934;2022-10-31T06:51:17;50.20;;;28.90;;
18732;SDS011;9495;51.210;2.934;2022-10-31T06:53:46;49.07;;;29.40;;
18732;SDS011;9495;51.210;2.934;2022-10-31T06:56:16;54.63;;;29.27;;
18732;SDS011;9495;51.210;2.934;2022-10-31T06:58:44;56.33;;;29.57;;
18732;SDS011;9495;51.210;2.934;2022-10-31T07:01:12;56.63;;;31.00;;
18732;SDS011;9495;51.210;2.934;2022-10-31T07:03:41;56.33;;;31.57;;
18732;SDS011;9495;51.210;2.934;2022-10-31T07:06:09;57.67;;;33.43;;
18732;SDS011;9495;51.210;2.934;2022-10-31T07:08:37;59.80;;;33.57;;
18732;SDS011;9495;51.210;2.934;2022-10-31T07:11:06;59.47;;;33.30;;
18732;SDS011;9495;51.210;2.934;2022-10-31T07:13:35;62.93;;;33.13;;
18732;SDS011;9495;51.210;2.934;2022-10-31T07:16:04;59.93;;;32.37;;
18732;SDS011;9495;51.210;2.934;2022-10-31T07:18:33;66.77;;;34.17;;
18732;SDS011;9495;51.210;2.934;2022-10-31T07:21:05;65.10;;;34.30;;
18732;SDS011;9495;51.210;2.934;2022-10-31T07:23:34;62.83;;;33.97;;
18732;SDS011;9495;51.210;2.934;2022-10-31T07:26:02;64.20;;;34.63;;
18732;SDS011;9495;51.210;2.934;2022-10-31T07:28:31;61.53;;;32.87;;
18732;SDS011;9495;51.210;2.934;2022-10-31T07:31:00;66.60;;;36.40;;
18732;SDS011;9495;51.210;2.934;2022-10-31T07:33:29;62.20;;;35.93;;
18732;SDS011;9495;51.210;2.934;2022-10-31T07:35:57;67.67;;;37.00;;
18732;SDS011;9495;51.210;2.934;2022-10-31T07:38:25;69.13;;;37.63;;
18732;SDS011;9495;51.210;2.934;2022-10-31T07:40:53;62.70;;;38.43;;
18732;SDS011;9495;51.210;2.934;2022-10-31T07:43:22;64.60;;;39.30;;
18732;SDS011;9495;51.210;2.934;2022-10-31T07:45:50;66.20;;;39.80;;
18732;SDS011;9495;51.210;2.934;2022-10-31T07:48:21;76.70;;;40.13;;
18732;SDS011;9495;51.210;2.934;2022-10-31T07:50:50;67.00;;;40.10;;
18732;SDS011;9495;51.210;2.934;2022-10-31T07:53:18;70.00;;;37.73;;
18732;SDS011;9495;51.210;2.934;2022-10-31T07:55:46;69.23;;;40.67;;
18732;SDS011;9495;51.210;2.934;2022-10-31T07:58:15;80.00;;;43.67;;
18732;SDS011;9495;51.210;2.934;2022-10-31T08:00:44;83.67;;;47.10;;
18732;SDS011;9495;51.210;2.934;2022-10-31T08:03:15;86.90;;;49.43;;
18732;SDS011;9495;51.210;2.934;2022-10-31T08:05:45;81.57;;;51.00;;
18732;SDS011;9495;51.210;2.934;2022-10-31T08:08:13;86.97;;;48.97;;
18732;SDS011;9495;51.210;2.934;2022-10-31T08:10:43;79.23;;;44.97;;
18732;SDS011;9495;51.210;2.934;2022-10-31T08:13:12;76.33;;;45.67;;
18732;SDS011;9495;51.210;2.934;2022-10-31T08:15:41;76.23;;;45.53;;
18732;SDS011;9495;51.210;2.934;2022-10-31T08:18:10;78.40;;;46.53;;
18732;SDS011;9495;51.210;2.934;2022-10-31T08:20:40;70.73;;;45.20;;
18732;SDS011;9495;51.210;2.934;2022-10-31T08:23:10;66.90;;;42.43;;
18732;SDS011;9495;51.210;2.934;2022-10-31T08:25:39;68.50;;;40.43;;
18732;SDS011;9495;51.210;2.934;2022-10-31T08:28:08;65.67;;;40.17;;
18732;SDS011;9495;51.210;2.934;2022-10-31T08:30:38;64.23;;;38.33;;
18732;SDS011;9495;51.210;2.934;2022-10-31T08:33:09;60.23;;;37.40;;
18732;SDS011;9495;51.210;2.934;2022-10-31T08:35:38;64.70;;;38.37;;
18732;SDS011;9495;51.210;2.934;2022-10-31T08:38:06;70.27;;;39.73;;
18732;SDS011;9495;51.210;2.934;2022-10-31T08:40:37;62.07;;;36.90;;
18732;SDS011;9495;51.210;2.934;2022-10-31T08:43:06;59.27;;;37.87;;
18732;SDS011;9495;51.210;2.934;2022-10-31T08:45:38;64.30;;;38.20;;
18732;SDS011;9495;51.210;2.934;2022-10-31T08:48:08;65.50;;;39.80;;
18732;SDS011;9495;51.210;2.934;2022-10-31T08:50:37;64.57;;;39.83;;
18732;SDS011;9495;51.210;2.934;2022-10-31T08:53:07;64.20;;;40.23;;
18732;SDS011;9495;51.210;2.934;2022-10-31T08:55:39;64.23;;;40.23;;
18732;SDS011;9495;51.210;2.934;2022-10-31T08:58:12;65.43;;;40.23;;
18732;SDS011;9495;51.210;2.934;2022-10-31T09:00:42;64.10;;;40.43;;
18732;SDS011;9495;51.210;2.934;2022-10-31T09:03:11;60.13;;;38.80;;
18732;SDS011;9495;51.210;2.934;2022-10-31T09:05:40;64.33;;;40.27;;
18732;SDS011;9495;51.210;2.934;2022-10-31T09:08:09;64.60;;;39.37;;
18732;SDS011;9495;51.210;2.934;2022-10-31T09:10:43;49.63;;;30.40;;
18732;SDS011;9495;51.210;2.934;2022-10-31T09:13:12;52.77;;;31.30;;
18732;SDS011;9495;51.210;2.934;2022-10-31T09:15:43;42.17;;;26.57;;
18732;SDS011;9495;51.210;2.934;2022-10-31T09:18:12;38.73;;;24.90;;
18732;SDS011;9495;51.210;2.934;2022-10-31T09:20:42;40.70;;;27.03;;
18732;SDS011;9495;51.210;2.934;2022-10-31T09:23:11;48.13;;;29.93;;
18732;SDS011;9495;51.210;2.934;2022-10-31T09:25:42;46.03;;;32.30;;
18732;SDS011;9495;51.210;2.934;2022-10-31T09:28:17;49.50;;;32.70;;
18732;SDS011;9495;51.210;2.934;2022-10-31T09:30:46;47.10;;;31.67;;
18732;SDS011;9495;51.210;2.934;2022-10-31T09:33:15;43.10;;;27.87;;
18732;SDS011;9495;51.210;2.934;2022-10-31T09:35:45;41.70;;;29.40;;
18732;SDS011;9495;51.210;2.934;2022-10-31T09:38:13;45.87;;;27.73;;
18732;SDS011;9495;51.210;2.934;2022-10-31T09:40:44;45.27;;;32.23;;
18732;SDS011;9495;51.210;2.934;2022-10-31T09:43:15;42.30;;;31.80;;
18732;SDS011;9495;51.210;2.934;2022-10-31T09:45:54;42.47;;;31.40;;
18732;SDS011;9495;51.210;2.934;2022-10-31T09:48:33;40.57;;;31.40;;
18732;SDS011;9495;51.210;2.934;2022-10-31T09:51:10;45.30;;;32.70;;
18732;SDS011;9495;51.210;2.934;2022-10-31T09:53:42;40.20;;;33.77;;
18732;SDS011;9495;51.210;2.934;2022-10-31T09:56:16;50.00;;;33.80;;
18732;SDS011;9495;51.210;2.934;2022-10-31T09:58:47;40.73;;;31.63;;
18732;SDS011;9495;51.210;2.934;2022-10-31T10:01:23;39.40;;;30.60;;
18732;SDS011;9495;51.210;2.934;2022-10-31T10:03:59;38.57;;;30.40;;
18732;SDS011;9495;51.210;2.934;2022-10-31T10:06:33;40.53;;;28.57;;
18732;SDS011;9495;51.210;2.934;2022-10-31T10:09:06;32.17;;;25.53;;
18732;SDS011;9495;51.210;2.934;2022-10-31T10:11:40;34.13;;;24.43;;
18732;SDS011;9495;51.210;2.934;2022-10-31T10:14:22;32.37;;;23.70;;
18732;SDS011;9495;51.210;2.934;2022-10-31T10:17:16;30.83;;;21.50;;
18732;SDS011;9495;51.210;2.934;2022-10-31T10:22:47;25.20;;;20.20;;
18732;SDS011;9495;51.210;2.934;2022-10-31T10:25:24;22.87;;;19.37;;
18732;SDS011;9495;51.210;2.934;2022-10-31T10:28:04;25.50;;;17.37;;
18732;SDS011;9495;51.210;2.934;2022-10-31T10:30:44;24.50;;;17.00;;
18732;SDS011;9495;51.210;2.934;2022-10-31T10:33:17;21.87;;;15.83;;
18732;SDS011;9495;51.210;2.934;2022-10-31T10:35:47;22.47;;;16.10;;
18732;SDS011;9495;51.210;2.934;2022-10-31T10:38:20;23.47;;;16.30;;
18732;SDS011;9495;51.210;2.934;2022-10-31T10:40:53;19.23;;;14.63;;
18732;SDS011;9495;51.210;2.934;2022-10-31T10:43:26;23.13;;;16.73;;
18732;SDS011;9495;51.210;2.934;2022-10-31T10:46:06;23.27;;;16.20;;
18732;SDS011;9495;51.210;2.934;2022-10-31T10:49:11;21.53;;;16.00;;
18732;SDS011;9495;51.210;2.934;2022-10-31T10:51:44;24.10;;;15.77;;
18732;SDS011;9495;51.210;2.934;2022-10-31T10:54:39;21.40;;;15.13;;
18732;SDS011;9495;51.210;2.934;2022-10-31T10:57:21;25.50;;;14.53;;
18732;SDS011;9495;51.210;2.934;2022-10-31T10:59:56;21.90;;;14.87;;
18732;SDS011;9495;51.210;2.934;2022-10-31T11:02:29;21.27;;;13.97;;
18732;SDS011;9495;51.210;2.934;2022-10-31T11:05:00;20.03;;;13.53;;
18732;SDS011;9495;51.210;2.934;2022-10-31T11:07:37;19.38;;;13.93;;
18732;SDS011;9495;51.210;2.934;2022-10-31T11:10:11;23.60;;;14.23;;
18732;SDS011;9495;51.210;2.934;2022-10-31T11:12:41;20.55;;;13.93;;
18732;SDS011;9495;51.210;2.934;2022-10-31T11:15:18;31.23;;;14.10;;
18732;SDS011;9495;51.210;2.934;2022-10-31T11:17:49;16.00;;;12.30;;
18732;SDS011;9495;51.210;2.934;2022-10-31T11:20:27;17.13;;;13.03;;
18732;SDS011;9495;51.210;2.934;2022-10-31T11:23:02;21.05;;;13.48;;
18732;SDS011;9495;51.210;2.934;2022-10-31T11:25:50;18.53;;;11.87;;
18732;SDS011;9495;51.210;2.934;2022-10-31T11:28:20;17.27;;;12.13;;
18732;SDS011;9495;51.210;2.934;2022-10-31T11:30:50;15.57;;;12.30;;
18732;SDS011;9495;51.210;2.934;2022-10-31T11:33:21;18.85;;;11.98;;
18732;SDS011;9495;51.210;2.934;2022-10-31T11:35:55;19.40;;;12.35;;
18732;SDS011;9495;51.210;2.934;2022-10-31T11:38:26;19.98;;;13.23;;
18732;SDS011;9495;51.210;2.934;2022-10-31T11:41:00;17.33;;;11.98;;
18732;SDS011;9495;51.210;2.934;2022-10-31T11:43:36;20.20;;;11.95;;
18732;SDS011;9495;51.210;2.934;2022-10-31T11:46:10;23.63;;;11.68;;
18732;SDS011;9495;51.210;2.934;2022-10-31T11:48:45;16.88;;;11.10;;
18732;SDS011;9495;51.210;2.934;2022-10-31T11:51:20;19.08;;;10.32;;
18732;SDS011;9495;51.210;2.934;2022-10-31T11:53:50;19.73;;;11.45;;
18732;SDS011;9495;51.210;2.934;2022-10-31T11:56:25;14.45;;;10.70;;
18732;SDS011;9495;51.210;2.934;2022-10-31T11:58:54;15.15;;;10.10;;
18732;SDS011;9495;51.210;2.934;2022-10-31T12:01:25;17.67;;;9.32;;
18732;SDS011;9495;51.210;2.934;2022-10-31T12:03:58;12.65;;;8.15;;
18732;SDS011;9495;51.210;2.934;2022-10-31T12:06:33;9.98;;;7.13;;
18732;SDS011;9495;51.210;2.934;2022-10-31T12:09:07;15.15;;;7.43;;
18732;SDS011;9495;51.210;2.934;2022-10-31T12:11:48;14.50;;;6.80;;
18732;SDS011;9495;51.210;2.934;2022-10-31T12:14:33;10.60;;;6.38;;
18732;SDS011;9495;51.210;2.934;2022-10-31T12:17:11;13.68;;;6.55;;
18732;SDS011;9495;51.210;2.934;2022-10-31T12:19:45;15.75;;;6.80;;
18732;SDS011;9495;51.210;2.934;2022-10-31T12:22:35;14.75;;;6.88;;
18732;SDS011;9495;51.210;2.934;2022-10-31T12:25:17;20.42;;;6.65;;
18732;SDS011;9495;51.210;2.934;2022-10-31T12:27:57;10.68;;;6.47;;
18732;SDS011;9495;51.210;2.934;2022-10-31T12:30:46;12.23;;;6.65;;
18732;SDS011;9495;51.210;2.934;2022-10-31T12:33:26;10.30;;;6.80;;
18732;SDS011;9495;51.210;2.934;2022-10-31T12:36:20;8.80;;;6.47;;
18732;SDS011;9495;51.210;2.934;2022-10-31T12:39:02;18.85;;;7.05;;
18732;SDS011;9495;51.210;2.934;2022-10-31T12:41:44;24.65;;;7.97;;
18732;SDS011;9495;51.210;2.934;2022-10-31T12:44:24;24.95;;;8.40;;
18732;SDS011;9495;51.210;2.934;2022-10-31T12:47:20;13.63;;;7.50;;
18732;SDS011;9495;51.210;2.934;2022-10-31T12:50:01;10.93;;;6.68;;
18732;SDS011;9495;51.210;2.934;2022-10-31T12:52:45;21.83;;;8.00;;
18732;SDS011;9495;51.210;2.934;2022-10-31T12:55:29;16.08;;;7.88;;
18732;SDS011;9495;51.210;2.934;2022-10-31T12:58:09;11.85;;;7.95;;
18732;SDS011;9495;51.210;2.934;2022-10-31T13:00:43;21.05;;;8.02;;
18732;SDS011;9495;51.210;2.934;2022-10-31T13:03:19;12.70;;;7.10;;
18732;SDS011;9495;51.210;2.934;2022-10-31T13:05:54;11.95;;;7.07;;
18732;SDS011;9495;51.210;2.934;2022-10-31T13:08:26;9.85;;;7.68;;
18732;SDS011;9495;51.210;2.934;2022-10-31T13:10:59;13.90;;;7.63;;
18732;SDS011;9495;51.210;2.934;2022-10-31T13:13:35;12.10;;;7.72;;
18732;SDS011;9495;51.210;2.934;2022-10-31T13:16:09;12.13;;;7.03;;
18732;SDS011;9495;51.210;2.934;2022-10-31T13:18:42;12.85;;;8.15;;
18732;SDS011;9495;51.210;2.934;2022-10-31T13:21:16;15.90;;;8.20;;
18732;SDS011;9495;51.210;2.934;2022-10-31T13:23:49;14.63;;;8.02;;
18732;SDS011;9495;51.210;2.934;2022-10-31T13:26:22;14.48;;;8.43;;
18732;SDS011;9495;51.210;2.934;2022-10-31T13:29:00;12.82;;;8.25;;
18732;SDS011;9495;51.210;2.934;2022-10-31T13:31:39;15.80;;;8.88;;
18732;SDS011;9495;51.210;2.934;2022-10-31T13:34:09;14.43;;;9.30;;
18732;SDS011;9495;51.210;2.934;2022-10-31T13:36:57;17.17;;;9.77;;
18732;SDS011;9495;51.210;2.934;2022-10-31T13:39:33;18.08;;;9.40;;
18732;SDS011;9495;51.210;2.934;2022-10-31T13:42:20;15.05;;;9.20;;
18732;SDS011;9495;51.210;2.934;2022-10-31T13:44:56;14.25;;;9.35;;
18732;SDS011;9495;51.210;2.934;2022-10-31T13:47:38;15.38;;;9.80;;
18732;SDS011;9495;51.210;2.934;2022-10-31T13:50:18;13.88;;;9.50;;
18732;SDS011;9495;51.210;2.934;2022-10-31T13:52:49;13.65;;;9.00;;
18732;SDS011;9495;51.210;2.934;2022-10-31T13:55:35;15.05;;;9.60;;
18732;SDS011;9495;51.210;2.934;2022-10-31T13:58:19;16.92;;;9.68;;
18732;SDS011;9495;51.210;2.934;2022-10-31T14:01:05;19.90;;;10.48;;
18732;SDS011;9495;51.210;2.934;2022-10-31T14:03:43;17.48;;;10.05;;
18732;SDS011;9495;51.210;2.934;2022-10-31T14:06:34;20.05;;;10.63;;
18732;SDS011;9495;51.210;2.934;2022-10-31T14:09:14;17.58;;;11.38;;
18732;SDS011;9495;51.210;2.934;2022-10-31T14:11:55;18.05;;;10.98;;
18732;SDS011;9495;51.210;2.934;2022-10-31T14:14:29;22.42;;;11.38;;
18732;SDS011;9495;51.210;2.934;2022-10-31T14:17:01;18.33;;;10.63;;
18732;SDS011;9495;51.210;2.934;2022-10-31T14:19:30;17.67;;;10.95;;
18732;SDS011;9495;51.210;2.934;2022-10-31T14:21:58;16.50;;;10.23;;
18732;SDS011;9495;51.210;2.934;2022-10-31T14:24:32;18.08;;;10.45;;
18732;SDS011;9495;51.210;2.934;2022-10-31T14:27:03;20.27;;;11.20;;
18732;SDS011;9495;51.210;2.934;2022-10-31T14:29:52;18.42;;;11.70;;
18732;SDS011;9495;51.210;2.934;2022-10-31T14:32:21;19.67;;;12.02;;
18732;SDS011;9495;51.210;2.934;2022-10-31T14:34:52;18.80;;;12.30;;
18732;SDS011;9495;51.210;2.934;2022-10-31T14:37:28;17.40;;;11.98;;
18732;SDS011;9495;51.210;2.934;2022-10-31T14:43:02;20.23;;;13.15;;
18732;SDS011;9495;51.210;2.934;2022-10-31T14:45:47;23.33;;;12.82;;
18732;SDS011;9495;51.210;2.934;2022-10-31T14:48:24;20.23;;;12.80;;
18732;SDS011;9495;51.210;2.934;2022-10-31T14:51:10;18.35;;;12.20;;
18732;SDS011;9495;51.210;2.934;2022-10-31T14:53:43;25.67;;;12.70;;
18732;SDS011;9495;51.210;2.934;2022-10-31T14:56:17;19.95;;;12.20;;
18732;SDS011;9495;51.210;2.934;2022-10-31T14:58:48;20.20;;;13.25;;
18732;SDS011;9495;51.210;2.934;2022-10-31T15:01:21;18.95;;;12.45;;
18732;SDS011;9495;51.210;2.934;2022-10-31T15:03:53;24.80;;;13.00;;
18732;SDS011;9495;51.210;2.934;2022-10-31T15:06:46;22.48;;;13.30;;
18732;SDS011;9495;51.210;2.934;2022-10-31T15:09:23;22.67;;;14.63;;
18732;SDS011;9495;51.210;2.934;2022-10-31T15:11:53;21.55;;;14.73;;
18732;SDS011;9495;51.210;2.934;2022-10-31T15:14:23;25.50;;;15.05;;
18732;SDS011;9495;51.210;2.934;2022-10-31T15:16:52;27.80;;;15.30;;
18732;SDS011;9495;51.210;2.934;2022-10-31T15:19:22;20.75;;;14.77;;
18732;SDS011;9495;51.210;2.934;2022-10-31T15:21:52;22.88;;;15.43;;